FDX229 PANC-PAFA
Flight info
| Callsign | FDX229 |
|---|---|
| Flight time | 0h 41m |
| Altitude | 28000 |
| Route | CAWIN LIBER5 |
| Aircraft | B77L/H-SDE1E2E3FGHIJ2J3J4J5M1RWXY/LB1D1 |
Departure
| Time | 2026-04-23 01:43 |
|---|---|
| Airport | Ted Stevens Anchorage International Airport (PANC) |
Arrival
| Time | 2026-04-23 02:24 |
|---|---|
| Airport | Fairbanks International Airport (PAFA) |
| Time | Latitude | Longitude | Altitude | Speed | Heading |
|---|---|---|---|---|---|
| 2026-04-23 01:28 | 61.18643 | -150.00134 | 120 ft | 0 kts | 329° |
| 2026-04-23 01:37 | 61.18647 | -150.00139 | 121 ft | 4 kts | 329° |
| 2026-04-23 01:37 | 61.18684 | -150.00215 | 123 ft | 10 kts | 298° |
| 2026-04-23 01:37 | 61.18649 | -150.00346 | 132 ft | 15 kts | 191° |
| 2026-04-23 01:37 | 61.18513 | -150.00281 | 126 ft | 26 kts | 165° |
| 2026-04-23 01:38 | 61.18309 | -150.00171 | 122 ft | 36 kts | 165° |
| 2026-04-23 01:38 | 61.18045 | -150.00022 | 122 ft | 39 kts | 165° |
| 2026-04-23 01:38 | 61.17799 | -149.99885 | 119 ft | 33 kts | 165° |
| 2026-04-23 01:38 | 61.17582 | -149.99767 | 122 ft | 30 kts | 165° |
| 2026-04-23 01:39 | 61.17402 | -149.99665 | 123 ft | 20 kts | 165° |
| 2026-04-23 01:39 | 61.17276 | -149.99595 | 123 ft | 18 kts | 165° |
| 2026-04-23 01:39 | 61.17225 | -149.99564 | 124 ft | 18 kts | 163° |
| 2026-04-23 01:40 | 61.17198 | -149.99546 | 126 ft | 18 kts | 161° |
| 2026-04-23 01:40 | 61.17128 | -149.99353 | 121 ft | 19 kts | 93° |
| 2026-04-23 01:40 | 61.17126 | -149.99061 | 121 ft | 21 kts | 92° |
| 2026-04-23 01:41 | 61.17122 | -149.98901 | 116 ft | 21 kts | 93° |
| 2026-04-23 01:41 | 61.17120 | -149.98845 | 117 ft | 21 kts | 94° |
| 2026-04-23 01:41 | 61.17043 | -149.98646 | 116 ft | 19 kts | 159° |
| 2026-04-23 01:41 | 61.16917 | -149.98552 | 117 ft | 20 kts | 156° |
| 2026-04-23 01:42 | 61.16805 | -149.98497 | 119 ft | 19 kts | 205° |
| 2026-04-23 01:42 | 61.16786 | -149.98718 | 125 ft | 22 kts | 271° |
| 2026-04-23 01:42 | 61.16789 | -149.99678 | 133 ft | 122 kts | 271° |
| 2026-04-23 01:43 | 61.16788 | -150.02099 | 469 ft | 192 kts | 269° |
| 2026-04-23 01:43 | 61.16802 | -150.05001 | 1409 ft | 215 kts | 277° |
| 2026-04-23 01:43 | 61.17547 | -150.07828 | 2190 ft | 243 kts | 317° |
| 2026-04-23 01:43 | 61.19117 | -150.09316 | 2801 ft | 258 kts | 358° |
| 2026-04-23 01:44 | 61.20909 | -150.08770 | 3471 ft | 268 kts | 20° |
| 2026-04-23 01:44 | 61.22742 | -150.07601 | 4270 ft | 283 kts | 19° |
| 2026-04-23 01:44 | 61.24675 | -150.06431 | 5156 ft | 296 kts | 17° |
| 2026-04-23 01:44 | 61.26677 | -150.05277 | 6230 ft | 300 kts | 15° |
| 2026-04-23 01:45 | 61.27882 | -150.04606 | 6850 ft | 303 kts | 15° |
| 2026-04-23 01:45 | 61.28476 | -150.04281 | 7106 ft | 306 kts | 14° |
| 2026-04-23 01:45 | 61.30558 | -150.03163 | 8060 ft | 312 kts | 13° |
| 2026-04-23 01:45 | 61.32689 | -150.02045 | 8996 ft | 320 kts | 12° |
| 2026-04-23 01:46 | 61.34876 | -150.00921 | 9951 ft | 327 kts | 11° |
| 2026-04-23 01:46 | 61.37117 | -149.99784 | 10661 ft | 341 kts | 11° |
| 2026-04-23 01:46 | 61.39516 | -149.98582 | 10945 ft | 369 kts | 11° |
| 2026-04-23 01:46 | 61.42115 | -149.97291 | 11221 ft | 397 kts | 11° |
| 2026-04-23 01:47 | 61.44842 | -149.95933 | 11977 ft | 408 kts | 11° |
| 2026-04-23 01:47 | 61.47630 | -149.94539 | 12930 ft | 415 kts | 11° |
| 2026-04-23 01:47 | 61.50455 | -149.93123 | 13926 ft | 419 kts | 11° |
| 2026-04-23 01:47 | 61.53303 | -149.91694 | 14817 ft | 423 kts | 11° |
| 2026-04-23 01:48 | 61.56180 | -149.90249 | 15729 ft | 427 kts | 11° |
| 2026-04-23 01:48 | 61.59092 | -149.88785 | 16653 ft | 431 kts | 11° |
| 2026-04-23 01:48 | 61.62021 | -149.87311 | 17562 ft | 435 kts | 11° |
| 2026-04-23 01:48 | 61.64978 | -149.85820 | 18447 ft | 440 kts | 11° |
| 2026-04-23 01:49 | 61.67957 | -149.84316 | 19295 ft | 441 kts | 11° |
| 2026-04-23 01:49 | 61.70944 | -149.82804 | 20126 ft | 443 kts | 11° |
| 2026-04-23 01:49 | 61.73959 | -149.81276 | 20881 ft | 448 kts | 11° |
| 2026-04-23 01:49 | 61.77006 | -149.79730 | 21600 ft | 452 kts | 11° |
| 2026-04-23 01:50 | 61.80079 | -149.78166 | 22336 ft | 456 kts | 11° |
| 2026-04-23 01:50 | 61.83183 | -149.76584 | 23092 ft | 460 kts | 11° |
| 2026-04-23 01:50 | 61.86307 | -149.74988 | 23819 ft | 464 kts | 11° |
| 2026-04-23 01:50 | 61.89460 | -149.73374 | 24414 ft | 468 kts | 11° |
| 2026-04-23 01:51 | 61.92640 | -149.71743 | 25009 ft | 472 kts | 11° |
| 2026-04-23 01:51 | 61.95848 | -149.70093 | 25592 ft | 477 kts | 11° |
| 2026-04-23 01:51 | 61.99081 | -149.68427 | 26171 ft | 481 kts | 11° |
| 2026-04-23 01:51 | 62.02349 | -149.66739 | 26764 ft | 485 kts | 11° |
| 2026-04-23 01:52 | 62.05642 | -149.65035 | 27331 ft | 489 kts | 11° |
| 2026-04-23 01:52 | 62.08949 | -149.63318 | 28021 ft | 488 kts | 10° |
| 2026-04-23 01:52 | 62.15574 | -149.59866 | 28098 ft | 488 kts | 11° |
| 2026-04-23 01:53 | 62.22116 | -149.56441 | 28123 ft | 487 kts | 11° |
| 2026-04-23 01:53 | 62.28717 | -149.52975 | 28132 ft | 489 kts | 10° |
| 2026-04-23 01:54 | 62.35338 | -149.49482 | 28130 ft | 490 kts | 10° |
| 2026-04-23 01:54 | 62.41965 | -149.45969 | 28132 ft | 490 kts | 10° |
| 2026-04-23 01:55 | 62.48575 | -149.42448 | 28145 ft | 489 kts | 11° |
| 2026-04-23 01:55 | 62.55173 | -149.38918 | 28153 ft | 488 kts | 11° |
| 2026-04-23 01:56 | 62.61753 | -149.35382 | 28158 ft | 486 kts | 10° |
| 2026-04-23 01:56 | 62.68297 | -149.31848 | 28177 ft | 484 kts | 10° |
| 2026-04-23 01:57 | 62.74817 | -149.28312 | 28172 ft | 482 kts | 10° |
| 2026-04-23 01:57 | 62.81318 | -149.24771 | 28199 ft | 481 kts | 11° |
| 2026-04-23 01:58 | 62.87815 | -149.21218 | 28199 ft | 482 kts | 11° |
| 2026-04-23 01:58 | 62.94312 | -149.17646 | 28213 ft | 480 kts | 10° |
| 2026-04-23 01:59 | 62.97556 | -149.15857 | 27658 ft | 482 kts | 10° |
| 2026-04-23 01:59 | 63.00784 | -149.14069 | 27146 ft | 475 kts | 10° |
| 2026-04-23 01:59 | 63.03969 | -149.12300 | 26667 ft | 468 kts | 10° |
| 2026-04-23 01:59 | 63.07063 | -149.10579 | 26217 ft | 461 kts | 10° |
| 2026-04-23 02:00 | 63.10154 | -149.08857 | 25767 ft | 455 kts | 10° |
| 2026-04-23 02:00 | 63.13204 | -149.07156 | 25339 ft | 449 kts | 10° |
| 2026-04-23 02:00 | 63.16219 | -149.05472 | 24909 ft | 444 kts | 11° |
| 2026-04-23 02:00 | 63.19197 | -149.03807 | 24507 ft | 440 kts | 10° |
| 2026-04-23 02:01 | 63.22151 | -149.02152 | 24058 ft | 436 kts | 10° |
| 2026-04-23 02:01 | 63.25078 | -149.00505 | 23591 ft | 432 kts | 10° |
| 2026-04-23 02:01 | 63.27979 | -148.98868 | 23123 ft | 428 kts | 10° |
| 2026-04-23 02:01 | 63.30850 | -148.97192 | 22666 ft | 424 kts | 11° |
| 2026-04-23 02:02 | 63.33682 | -148.95470 | 22248 ft | 420 kts | 12° |
| 2026-04-23 02:02 | 63.36481 | -148.93742 | 21822 ft | 416 kts | 12° |
| 2026-04-23 02:02 | 63.39254 | -148.92027 | 21354 ft | 412 kts | 12° |
| 2026-04-23 02:02 | 63.42004 | -148.90327 | 20925 ft | 408 kts | 11° |
| 2026-04-23 02:03 | 63.44732 | -148.88643 | 20502 ft | 405 kts | 11° |
| 2026-04-23 02:03 | 63.47434 | -148.86977 | 20098 ft | 402 kts | 11° |
| 2026-04-23 02:03 | 63.50126 | -148.85317 | 19649 ft | 399 kts | 11° |
| 2026-04-23 02:03 | 63.52794 | -148.83669 | 19252 ft | 396 kts | 11° |
| 2026-04-23 02:04 | 63.55446 | -148.82029 | 18826 ft | 394 kts | 11° |
| 2026-04-23 02:04 | 63.58076 | -148.80400 | 18409 ft | 391 kts | 11° |
| 2026-04-23 02:04 | 63.60697 | -148.78774 | 17936 ft | 389 kts | 11° |
| 2026-04-23 02:04 | 63.63293 | -148.77158 | 17473 ft | 386 kts | 11° |
| 2026-04-23 02:05 | 63.65865 | -148.75554 | 17063 ft | 382 kts | 11° |
| 2026-04-23 02:05 | 63.66413 | -148.75212 | 16972 ft | 381 kts | 11° |
| 2026-04-23 02:06 | 63.67545 | -148.74504 | 16770 ft | 375 kts | 11° |
| 2026-04-23 02:06 | 63.70001 | -148.72960 | 16400 ft | 358 kts | 11° |
| 2026-04-23 02:06 | 63.72355 | -148.71479 | 16000 ft | 344 kts | 11° |
| 2026-04-23 02:06 | 63.74611 | -148.70060 | 15673 ft | 330 kts | 11° |
| 2026-04-23 02:07 | 63.76785 | -148.68692 | 15305 ft | 320 kts | 11° |
| 2026-04-23 02:07 | 63.78925 | -148.67349 | 14860 ft | 321 kts | 11° |
| 2026-04-23 02:07 | 63.81059 | -148.66011 | 14455 ft | 323 kts | 11° |
| 2026-04-23 02:07 | 63.83221 | -148.64658 | 14119 ft | 321 kts | 11° |
| 2026-04-23 02:08 | 63.85400 | -148.63284 | 13694 ft | 321 kts | 11° |
| 2026-04-23 02:08 | 63.87527 | -148.61936 | 13267 ft | 321 kts | 11° |
| 2026-04-23 02:08 | 63.89675 | -148.60567 | 12891 ft | 319 kts | 11° |
| 2026-04-23 02:08 | 63.91806 | -148.59214 | 12526 ft | 317 kts | 11° |
| 2026-04-23 02:09 | 63.93932 | -148.57863 | 12095 ft | 317 kts | 11° |
| 2026-04-23 02:09 | 63.96059 | -148.56507 | 11675 ft | 318 kts | 11° |
| 2026-04-23 02:09 | 63.98191 | -148.55149 | 11234 ft | 318 kts | 11° |
| 2026-04-23 02:09 | 64.00331 | -148.53779 | 10745 ft | 321 kts | 11° |
| 2026-04-23 02:10 | 64.02486 | -148.52392 | 10265 ft | 323 kts | 12° |
| 2026-04-23 02:10 | 64.04661 | -148.51002 | 9824 ft | 325 kts | 12° |
| 2026-04-23 02:10 | 64.06777 | -148.49635 | 9475 ft | 308 kts | 12° |
| 2026-04-23 02:10 | 64.08801 | -148.48323 | 9023 ft | 297 kts | 12° |
| 2026-04-23 02:11 | 64.10777 | -148.47049 | 8422 ft | 294 kts | 13° |
| 2026-04-23 02:11 | 64.12768 | -148.45766 | 7925 ft | 298 kts | 13° |
| 2026-04-23 02:11 | 64.14738 | -148.44486 | 7757 ft | 290 kts | 14° |
| 2026-04-23 02:11 | 64.16664 | -148.43236 | 7466 ft | 287 kts | 14° |
| 2026-04-23 02:12 | 64.18584 | -148.41990 | 7158 ft | 287 kts | 14° |
| 2026-04-23 02:12 | 64.20503 | -148.40755 | 7080 ft | 290 kts | 15° |
| 2026-04-23 02:12 | 64.22537 | -148.39421 | 7147 ft | 322 kts | 15° |
| 2026-04-23 02:12 | 64.24763 | -148.37961 | 7167 ft | 341 kts | 15° |
| 2026-04-23 02:13 | 64.27039 | -148.36467 | 7090 ft | 329 kts | 15° |
| 2026-04-23 02:13 | 64.29156 | -148.35075 | 6824 ft | 306 kts | 14° |
| 2026-04-23 02:13 | 64.31168 | -148.33754 | 6682 ft | 299 kts | 14° |
| 2026-04-23 02:13 | 64.33217 | -148.32408 | 6713 ft | 309 kts | 14° |
| 2026-04-23 02:14 | 64.35256 | -148.31066 | 6556 ft | 299 kts | 14° |
| 2026-04-23 02:14 | 64.37250 | -148.29764 | 6131 ft | 297 kts | 14° |
| 2026-04-23 02:14 | 64.38600 | -148.28884 | 5880 ft | 286 kts | 15° |
| 2026-04-23 02:14 | 64.39452 | -148.28271 | 5688 ft | 280 kts | 17° |
| 2026-04-23 02:15 | 64.41824 | -148.26636 | 5243 ft | 260 kts | 18° |
| 2026-04-23 02:15 | 64.43547 | -148.25484 | 5037 ft | 261 kts | 10° |
| 2026-04-23 02:15 | 64.43704 | -148.25414 | 5020 ft | 263 kts | 8° |
| 2026-04-23 02:16 | 64.45130 | -148.25070 | 4941 ft | 264 kts | 2° |
| 2026-04-23 02:16 | 64.46977 | -148.24987 | 4733 ft | 267 kts | 0° |
| 2026-04-23 02:16 | 64.48816 | -148.24960 | 4562 ft | 263 kts | 1° |
| 2026-04-23 02:16 | 64.50655 | -148.24896 | 4405 ft | 265 kts | 2° |
| 2026-04-23 02:17 | 64.52487 | -148.24795 | 4239 ft | 264 kts | 3° |
| 2026-04-23 02:17 | 64.54342 | -148.24666 | 4105 ft | 269 kts | 4° |
| 2026-04-23 02:17 | 64.56213 | -148.24525 | 3934 ft | 269 kts | 4° |
| 2026-04-23 02:17 | 64.58075 | -148.24382 | 3768 ft | 266 kts | 5° |
| 2026-04-23 02:18 | 64.59916 | -148.24211 | 3603 ft | 260 kts | 9° |
| 2026-04-23 02:18 | 64.60704 | -148.23854 | 3501 ft | 252 kts | 25° |
| 2026-04-23 02:19 | 64.61496 | -148.22883 | 3439 ft | 242 kts | 42° |
| 2026-04-23 02:19 | 64.62641 | -148.20714 | 3351 ft | 244 kts | 44° |
| 2026-04-23 02:19 | 64.63211 | -148.19648 | 3287 ft | 247 kts | 43° |
| 2026-04-23 02:19 | 64.65000 | -148.16403 | 3100 ft | 242 kts | 43° |
| 2026-04-23 02:20 | 64.65890 | -148.14797 | 2976 ft | 236 kts | 43° |
| 2026-04-23 02:20 | 64.66445 | -148.13794 | 2922 ft | 232 kts | 43° |
| 2026-04-23 02:20 | 64.67264 | -148.12311 | 2806 ft | 226 kts | 43° |
| 2026-04-23 02:20 | 64.68096 | -148.10805 | 2706 ft | 218 kts | 43° |
| 2026-04-23 02:21 | 64.69266 | -148.08686 | 2562 ft | 207 kts | 43° |
| 2026-04-23 02:21 | 64.70369 | -148.06684 | 2426 ft | 194 kts | 43° |
| 2026-04-23 02:21 | 64.71396 | -148.04823 | 2332 ft | 184 kts | 43° |
| 2026-04-23 02:21 | 64.72406 | -148.02976 | 2277 ft | 181 kts | 43° |
| 2026-04-23 02:22 | 64.73373 | -148.01218 | 2129 ft | 170 kts | 43° |
| 2026-04-23 02:22 | 64.74266 | -147.99590 | 2008 ft | 154 kts | 43° |
| 2026-04-23 02:22 | 64.75087 | -147.98090 | 2012 ft | 154 kts | 41° |
| 2026-04-23 02:22 | 64.75957 | -147.96491 | 1980 ft | 161 kts | 39° |
| 2026-04-23 02:23 | 64.76852 | -147.94841 | 2004 ft | 168 kts | 40° |
| 2026-04-23 02:23 | 64.77781 | -147.93081 | 1667 ft | 172 kts | 39° |
| 2026-04-23 02:23 | 64.78694 | -147.91357 | 1211 ft | 165 kts | 38° |
| 2026-04-23 02:23 | 64.79611 | -147.89803 | 744 ft | 155 kts | 40° |
| 2026-04-23 02:24 | 64.80378 | -147.88373 | 499 ft | 126 kts | 42° |
| 2026-04-23 02:24 | 64.80996 | -147.87234 | 428 ft | 100 kts | 37° |
| 2026-04-23 02:24 | 64.81418 | -147.86472 | 431 ft | 49 kts | 38° |
| 2026-04-23 02:24 | 64.81602 | -147.86189 | 432 ft | 19 kts | 356° |
| 2026-04-23 02:25 | 64.81620 | -147.86429 | 429 ft | 19 kts | 237° |
| 2026-04-23 02:25 | 64.81577 | -147.86713 | 431 ft | 19 kts | 226° |
| 2026-04-23 02:25 | 64.81569 | -147.87002 | 433 ft | 19 kts | 274° |
| 2026-04-23 02:25 | 64.81535 | -147.87188 | 427 ft | 0 kts | 219° |